Time;durP1;ratioP1;P1;durP2;ratioP2;P2;SDS_P1;SDS_P2;PMS_P1;PMS_P2;Temp;Humidity;BMP_temperature;BMP_pressure;BME280_temperature;BME280_humidity;BME280_pressure;Samples;Min_cycle;Max_cycle;Signal;HPM_P1;HPM_P2
2022/05/12 02:32:47;;;;;;;21.23;16.58;;;20.90;82.90;;;;;;6336908;22;20136;-83
2022/05/12 02:35:13;;;;;;;15.07;12.70;;;20.90;82.30;;;;;;6338389;22;20003;-83
2022/05/12 02:37:40;;;;;;;30.50;24.85;;;21.00;81.60;;;;;;6339516;22;20457;-83
2022/05/12 02:40:07;;;;;;;27.42;20.40;;;20.70;81.00;;;;;;6312082;22;20056;-83
2022/05/12 02:42:33;;;;;;;26.27;23.45;;;20.60;81.90;;;;;;6337942;22;19999;-83
2022/05/12 02:44:59;;;;;;;17.85;15.57;;;20.10;82.70;;;;;;6338491;22;20006;-83
2022/05/12 02:47:25;;;;;;;33.35;25.88;;;20.30;82.80;;;;;;6310859;22;20309;-82
2022/05/12 02:49:50;;;;;;;27.35;22.83;;;19.90;82.80;;;;;;6338644;22;19999;-83
2022/05/12 02:52:16;;;;;;;30.63;25.60;;;19.80;83.80;;;;;;6338711;22;20436;-83
2022/05/12 02:54:42;;;;;;;21.80;16.90;;;19.60;84.30;;;;;;6339783;22;20005;-82
2022/05/12 02:57:08;;;;;;;26.38;22.50;;;19.70;84.40;;;;;;6338592;22;20317;-82
2022/05/12 02:59:33;;;;;;;30.60;23.42;;;19.60;84.10;;;;;;6338725;22;20340;-82
2022/05/12 03:01:59;;;;;;;24.35;21.38;;;19.60;84.10;;;;;;6338476;22;20013;-83
2022/05/12 03:04:26;;;;;;;18.70;16.27;;;19.40;84.40;;;;;;6338264;22;20022;-83
2022/05/12 03:06:52;;;;;;;17.42;14.13;;;19.50;84.60;;;;;;6338751;22;19995;-83
2022/05/12 03:09:18;;;;;;;21.73;19.42;;;19.70;84.00;;;;;;6338762;22;20001;-82
2022/05/12 03:11:43;;;;;;;25.65;21.77;;;19.80;83.00;;;;;;6338861;22;20168;-81
2022/05/12 03:14:09;;;;;;;17.20;13.30;;;19.70;82.90;;;;;;6339222;22;20372;-81
2022/05/12 03:16:36;;;;;;;17.90;14.27;;;19.90;82.40;;;;;;6310745;22;20002;-81
2022/05/12 03:19:02;;;;;;;22.00;19.65;;;20.10;81.70;;;;;;6338596;22;20003;-82
2022/05/12 03:21:28;;;;;;;29.77;23.08;;;20.10;80.80;;;;;;6336469;22;20417;-80
2022/05/12 03:23:54;;;;;;;24.75;18.63;;;20.00;80.90;;;;;;6337500;22;20143;-80
2022/05/12 03:26:20;;;;;;;16.67;14.68;;;19.80;81.80;;;;;;6338635;22;19995;-84
2022/05/12 03:28:46;;;;;;;14.70;11.80;;;19.80;81.70;;;;;;6339398;22;20373;-87
2022/05/12 03:31:12;;;;;;;16.25;12.00;;;20.00;81.00;;;;;;6339823;22;20003;-87
2022/05/12 03:33:40;;;;;;;13.95;12.25;;;20.20;80.50;;;;;;6339164;22;20003;-82
2022/05/12 03:36:06;;;;;;;15.90;12.43;;;20.20;80.10;;;;;;6337122;22;20014;-83
2022/05/12 03:38:32;;;;;;;12.63;11.32;;;20.30;79.60;;;;;;6338977;22;20006;-83
2022/05/12 03:40:58;;;;;;;17.60;14.05;;;20.30;79.20;;;;;;6338280;22;19999;-85
2022/05/12 03:46:12;;;;;;;18.13;14.30;;;20.50;78.80;;;;;;6339426;22;20486;-84
2022/05/12 03:48:39;;;;;;;16.67;13.87;;;20.60;78.20;;;;;;6338933;22;20005;-84
2022/05/12 03:51:07;;;;;;;16.10;11.88;;;20.60;77.90;;;;;;6344104;22;20014;-86
2022/05/12 03:53:33;;;;;;;15.15;12.15;;;20.70;77.50;;;;;;6370322;22;20021;-87
2022/05/12 03:56:00;;;;;;;13.52;12.13;;;20.70;77.50;;;;;;6370042;22;20047;-87
2022/05/12 03:58:26;;;;;;;12.75;11.02;;;20.60;77.40;;;;;;6369753;22;19998;-88
2022/05/12 04:00:52;;;;;;;14.15;10.68;;;20.60;77.70;;;;;;6369964;22;20071;-90
2022/05/12 04:03:18;;;;;;;12.27;11.02;;;20.60;77.50;;;;;;6369846;22;20007;-91
2022/05/12 04:05:44;;;;;;;14.27;11.40;;;20.60;77.50;;;;;;6370825;22;19998;-87
2022/05/12 04:08:10;;;;;;;15.25;11.05;;;20.70;77.60;;;;;;6370141;22;20424;-89
2022/05/12 04:10:35;;;;;;;13.82;11.18;;;20.70;77.50;;;;;;6370254;22;20001;-86
2022/05/12 04:13:02;;;;;;;19.30;14.45;;;20.80;77.40;;;;;;6370472;22;19994;-87
2022/05/12 04:15:28;;;;;;;13.27;11.00;;;20.80;77.60;;;;;;6370541;22;20003;-87
2022/05/12 04:17:57;;;;;;;15.13;13.02;;;20.80;77.30;;;;;;6370737;22;20440;-87
2022/05/12 04:20:24;;;;;;;13.20;11.43;;;20.70;77.50;;;;;;6370106;22;20048;-87
2022/05/12 04:22:50;;;;;;;18.10;14.30;;;20.70;77.80;;;;;;6370491;22;20078;-90
2022/05/12 04:25:16;;;;;;;15.75;11.95;;;20.60;77.70;;;;;;6370403;22;20033;-91
2022/05/12 04:27:42;;;;;;;14.77;12.88;;;20.60;77.60;;;;;;6370901;22;19995;-92
2022/05/12 04:30:11;;;;;;;21.67;14.63;;;20.60;78.20;;;;;;6370040;22;19999;-86
2022/05/12 04:32:37;;;;;;;14.18;11.00;;;20.60;78.40;;;;;;6369356;22;19998;-81
2022/05/12 04:35:11;;;;;;;22.10;17.90;;;20.50;78.20;;;;;;6369524;22;20044;-80
2022/05/12 04:37:38;;;;;;;25.58;21.55;;;20.30;79.30;;;;;;6369460;22;20009;-80
2022/05/12 04:40:11;;;;;;;16.80;12.52;;;20.00;80.00;;;;;;6369004;22;20007;-80
2022/05/12 04:42:37;;;;;;;21.05;15.05;;;20.00;80.20;;;;;;6370079;22;20074;-90
2022/05/12 04:45:05;;;;;;;27.65;21.85;;;20.00;80.40;;;;;;6370376;22;20048;-80
2022/05/12 04:47:33;;;;;;;18.00;16.17;;;19.70;81.30;;;;;;6369947;22;20565;-78
2022/05/12 04:49:58;;;;;;;17.92;16.10;;;19.80;81.20;;;;;;6368108;22;20077;-78
2022/05/12 04:52:25;;;;;;;24.00;18.25;;;20.00;81.00;;;;;;6369296;22;20095;-78
2022/05/12 04:54:54;;;;;;;18.52;14.18;;;19.90;81.00;;;;;;6369030;22;20073;-79
2022/05/12 04:57:20;;;;;;;18.48;14.52;;;20.00;80.40;;;;;;6369651;22;20003;-79
2022/05/12 04:59:46;;;;;;;17.38;15.07;;;20.10;80.60;;;;;;6368820;22;20019;-78
2022/05/12 05:02:12;;;;;;;17.30;12.27;;;20.20;80.50;;;;;;6368870;22;20003;-80
2022/05/12 05:04:38;;;;;;;14.65;11.77;;;20.30;79.80;;;;;;6368377;22;20055;-79
2022/05/12 05:07:06;;;;;;;15.02;12.40;;;20.30;79.80;;;;;;6340173;22;20473;-77
2022/05/12 05:09:31;;;;;;;31.48;20.00;;;20.40;79.80;;;;;;6341053;22;19998;-79
2022/05/12 05:11:57;;;;;;;34.88;23.40;;;20.20;80.60;;;;;;6368697;22;20005;-79
2022/05/12 05:14:24;;;;;;;20.02;15.65;;;19.90;81.70;;;;;;6368938;22;20070;-88
2022/05/12 05:16:49;;;;;;;27.65;22.40;;;19.80;82.40;;;;;;6369705;22;20002;-88
2022/05/12 05:19:16;;;;;;;17.77;15.02;;;19.80;82.30;;;;;;6369145;22;20408;-87
2022/05/12 05:21:42;;;;;;;31.50;24.88;;;19.70;83.20;;;;;;6370045;22;20081;-87
2022/05/12 05:24:08;;;;;;;17.23;14.90;;;19.60;83.10;;;;;;6369018;22;20394;-84
2022/05/12 05:26:34;;;;;;;32.65;23.08;;;19.70;83.50;;;;;;6368471;22;19999;-78
2022/05/12 05:29:01;;;;;;;19.67;15.80;;;19.50;83.50;;;;;;6369471;22;20002;-77
2022/05/12 05:31:26;;;;;;;27.92;23.45;;;19.50;83.90;;;;;;6340607;22;20025;-79
2022/05/12 05:33:52;;;;;;;35.63;26.08;;;19.50;83.80;;;;;;6340981;22;20316;-77
2022/05/12 05:36:18;;;;;;;28.13;23.48;;;19.30;84.60;;;;;;6364554;22;20002;-77
2022/05/12 05:38:43;;;;;;;26.08;21.52;;;19.30;85.00;;;;;;6366644;22;20051;-77
2022/05/12 05:41:09;;;;;;;26.50;20.85;;;19.40;84.90;;;;;;6367351;22;20025;-78
2022/05/12 05:43:35;;;;;;;13.30;11.95;;;19.50;84.90;;;;;;6367297;22;20033;-78
2022/05/12 05:46:01;;;;;;;19.52;14.23;;;19.70;84.20;;;;;;6367383;22;20070;-78
2022/05/12 05:48:27;;;;;;;18.98;14.32;;;19.90;83.60;;;;;;6369619;22;20456;-79
2022/05/12 05:53:38;;;;;;;13.85;11.32;;;20.10;83.00;;;;;;6370499;22;20463;-80
2022/05/12 05:56:07;;;;;;;14.05;12.55;;;20.30;82.30;;;;;;6370017;22;20002;-79
2022/05/12 05:58:33;;;;;;;16.60;11.93;;;20.50;81.80;;;;;;6369423;22;20002;-79
2022/05/12 06:00:59;;;;;;;13.18;11.10;;;20.60;81.30;;;;;;6370919;22;20036;-78
2022/05/12 06:03:25;;;;;;;14.43;11.40;;;20.70;80.90;;;;;;6369057;22;20052;-80
2022/05/12 06:05:52;;;;;;;15.45;11.70;;;20.80;80.50;;;;;;6370464;22;20297;-77
2022/05/12 06:08:20;;;;;;;17.42;12.55;;;20.80;80.50;;;;;;6370552;22;20021;-78
2022/05/12 06:10:49;;;;;;;11.88;10.57;;;20.80;80.40;;;;;;6365853;22;19998;-78
2022/05/12 06:13:15;;;;;;;13.13;11.50;;;20.90;80.30;;;;;;6367816;22;20124;-78
2022/05/12 06:15:41;;;;;;;13.95;10.68;;;20.90;80.40;;;;;;6370027;22;20002;-78
2022/05/12 06:18:13;;;;;;;15.93;13.55;;;20.90;80.40;;;;;;6369175;22;20015;-78
2022/05/12 06:20:41;;;;;;;16.13;12.88;;;20.90;80.60;;;;;;6370335;22;20002;-78
2022/05/12 06:23:08;;;;;;;16.65;13.27;;;20.90;80.50;;;;;;6368521;22;20006;-78
2022/05/12 06:25:35;;;;;;;11.85;9.57;;;20.90;80.60;;;;;;6370253;22;20055;-78
2022/05/12 06:28:02;;;;;;;12.27;10.40;;;21.00;80.20;;;;;;6370204;22;20002;-79
2022/05/12 06:30:29;;;;;;;12.35;9.43;;;21.00;80.30;;;;;;6370617;22;20091;-78
2022/05/12 06:32:56;;;;;;;17.63;12.40;;;21.10;80.00;;;;;;6370273;22;20004;-79
2022/05/12 06:35:23;;;;;;;14.90;12.70;;;21.10;80.20;;;;;;6370480;22;19998;-79
2022/05/12 06:37:49;;;;;;;18.45;14.98;;;21.10;80.00;;;;;;6342192;22;20068;-79
2022/05/12 06:40:16;;;;;;;16.30;11.95;;;21.10;79.80;;;;;;6341493;22;20641;-79
2022/05/12 06:42:42;;;;;;;12.82;9.63;;;21.30;79.90;;;;;;6370962;22;20002;-79
2022/05/12 06:45:19;;;;;;;17.67;15.57;;;21.30;79.60;;;;;;6370582;22;20005;-78
2022/05/12 06:47:48;;;;;;;13.18;10.52;;;21.30;79.70;;;;;;6370766;22;19995;-77
2022/05/12 06:58:55;;;;;;;13.07;9.07;;;21.40;79.20;;;;;;6273137;22;20031;-80
2022/05/12 07:01:20;;;;;;;9.70;8.35;;;21.50;79.10;;;;;;6275522;22;20004;-80
2022/05/12 07:03:46;;;;;;;11.75;8.52;;;21.60;78.60;;;;;;6275245;22;20003;-80
2022/05/12 07:06:12;;;;;;;12.27;10.65;;;21.60;78.40;;;;;;6274895;22;19996;-81
2022/05/12 07:08:42;;;;;;;10.98;8.60;;;21.70;78.20;;;;;;6274789;22;20000;-79
2022/05/12 07:11:08;;;;;;;10.57;8.52;;;21.80;78.10;;;;;;6275635;22;20071;-80
2022/05/12 07:13:35;;;;;;;12.00;8.27;;;21.80;77.70;;;;;;6248264;22;20014;-78
2022/05/12 07:16:02;;;;;;;9.40;7.70;;;21.90;77.40;;;;;;6275725;22;20362;-77
2022/05/12 07:18:27;;;;;;;24.00;13.73;;;22.00;77.40;;;;;;6275255;22;20004;-82
2022/05/12 07:26:39;;;;;;;25.73;15.93;;;22.10;76.50;;;;;;6275975;22;20073;-79
2022/05/12 07:29:09;;;;;;;14.52;10.20;;;22.10;75.90;;;;;;6275501;22;19996;-75
2022/05/12 07:31:35;;;;;;;12.98;10.27;;;22.00;76.40;;;;;;6247211;22;20004;-75
2022/05/12 07:34:01;;;;;;;16.38;10.55;;;22.10;75.80;;;;;;6273985;22;20057;-75
2022/05/12 07:36:30;;;;;;;12.90;10.25;;;22.10;75.80;;;;;;6276511;22;20038;-76
2022/05/12 07:38:56;;;;;;;13.15;8.00;;;22.20;75.80;;;;;;6275875;22;20042;-76
2022/05/12 07:41:23;;;;;;;11.85;7.75;;;22.20;75.50;;;;;;6277136;22;20426;-76
2022/05/12 07:43:51;;;;;;;12.27;8.07;;;22.40;75.40;;;;;;6276633;22;20122;-75
2022/05/12 07:46:18;;;;;;;14.10;11.52;;;22.50;75.30;;;;;;6275884;22;20513;-76
2022/05/12 07:48:45;;;;;;;11.77;9.10;;;22.50;74.20;;;;;;6276469;22;20000;-76
2022/05/12 07:51:11;;;;;;;12.98;10.20;;;22.60;74.40;;;;;;6276315;22;19996;-76
2022/05/12 07:53:37;;;;;;;12.35;8.43;;;22.60;74.10;;;;;;6275924;22;20000;-75
2022/05/12 07:56:05;;;;;;;11.50;7.80;;;22.70;73.90;;;;;;6275507;22;19996;-76
2022/05/12 07:58:31;;;;;;;14.05;9.70;;;22.80;73.60;;;;;;6276190;22;20008;-76
2022/05/12 08:00:57;;;;;;;25.30;14.40;;;22.80;73.00;;;;;;6276372;22;20418;-76
2022/05/12 08:03:23;;;;;;;18.05;12.50;;;22.80;73.10;;;;;;6276324;22;19996;-75
2022/05/12 08:05:50;;;;;;;15.68;10.93;;;22.70;72.70;;;;;;6276051;22;20006;-76
2022/05/12 08:08:16;;;;;;;12.85;10.32;;;22.80;73.40;;;;;;6276059;22;20007;-76
2022/05/12 08:10:42;;;;;;;12.38;7.75;;;22.80;73.00;;;;;;6275125;22;20003;-75
2022/05/12 08:13:15;;;;;;;9.50;7.28;;;22.90;73.00;;;;;;6275591;22;20070;-76
2022/05/12 08:15:46;;;;;;;10.23;6.63;;;23.00;72.50;;;;;;6275291;22;20000;-76
2022/05/12 08:18:13;;;;;;;12.52;7.22;;;23.10;72.00;;;;;;6276054;22;20441;-78
2022/05/12 08:20:39;;;;;;;12.57;8.45;;;23.30;72.40;;;;;;6275704;22;20000;-78
2022/05/12 08:23:05;;;;;;;7.93;6.10;;;23.30;70.50;;;;;;6275572;22;20004;-78
2022/05/12 08:25:31;;;;;;;8.55;5.97;;;23.50;71.90;;;;;;6273433;22;20091;-79
2022/05/12 08:27:57;;;;;;;10.52;6.18;;;23.60;71.90;;;;;;6271791;22;20004;-79
2022/05/12 08:30:23;;;;;;;8.75;5.50;;;23.80;71.80;;;;;;6270552;22;20004;-76
2022/05/12 08:32:48;;;;;;;8.38;6.75;;;23.90;71.50;;;;;;6267861;22;20304;-76
2022/05/12 08:35:14;;;;;;;9.80;5.68;;;24.10;70.70;;;;;;6244626;22;20384;-76
2022/05/12 08:37:40;;;;;;;16.05;9.88;;;24.10;70.70;;;;;;6275397;22;20420;-76
2022/05/12 08:40:14;;;;;;;8.15;5.78;;;24.00;65.90;;;;;;6275242;22;20334;-76
2022/05/12 08:42:43;;;;;;;8.02;5.40;;;24.10;67.90;;;;;;6248848;22;20326;-75
2022/05/12 08:45:13;;;;;;;10.45;6.72;;;24.20;68.70;;;;;;6275580;22;20066;-77
2022/05/12 08:47:43;;;;;;;27.17;6.27;;;24.30;67.80;;;;;;6249004;22;20000;-77
2022/05/12 08:50:18;;;;;;;23.33;6.30;;;24.40;68.80;;;;;;6275029;22;20218;-77
2022/05/12 08:53:03;;;;;;;10.10;5.20;;;24.50;67.00;;;;;;6281955;22;20074;-77
2022/05/12 08:55:45;;;;;;;16.58;9.40;;;24.60;67.70;;;;;;6280931;22;20000;-78
2022/05/12 08:58:18;;;;;;;15.32;6.43;;;24.70;65.70;;;;;;6252576;22;20020;-77
2022/05/12 09:00:57;;;;;;;16.88;5.95;;;24.60;65.70;;;;;;6254304;22;20137;-77
2022/05/12 09:03:53;;;;;;;9.43;5.65;;;24.70;66.40;;;;;;6311502;22;20338;-77
2022/05/12 09:06:44;;;;;;;18.80;10.18;;;24.80;65.60;;;;;;6311538;22;20002;-76
2022/05/12 09:09:36;;;;;;;7.25;5.55;;;24.90;63.70;;;;;;6313048;22;20031;-75
2022/05/12 09:12:23;;;;;;;10.93;5.43;;;24.90;63.30;;;;;;6285791;22;20000;-75
2022/05/12 09:14:56;;;;;;;6.65;4.75;;;25.00;65.30;;;;;;6313966;22;19999;-75
2022/05/12 09:17:27;;;;;;;5.97;4.47;;;25.30;66.60;;;;;;6308486;22;20004;-76
2022/05/12 09:19:53;;;;;;;11.05;5.20;;;25.40;65.90;;;;;;6311241;22;20006;-77
2022/05/12 09:22:27;;;;;;;7.18;5.00;;;25.60;65.70;;;;;;6314310;22;20004;-76
2022/05/12 09:24:53;;;;;;;10.30;6.55;;;25.70;65.40;;;;;;6314314;22;20003;-75
2022/05/12 09:27:36;;;;;;;7.10;4.90;;;25.80;63.40;;;;;;6309897;22;20090;-76
2022/05/12 09:30:06;;;;;;;10.38;7.70;;;25.80;63.80;;;;;;6310228;22;19999;-75
2022/05/12 09:32:35;;;;;;;12.85;5.80;;;25.70;62.00;;;;;;6311466;22;19996;-78
2022/05/12 09:35:12;;;;;;;7.07;5.07;;;25.80;63.30;;;;;;6310350;22;20034;-76
2022/05/12 09:37:41;;;;;;;11.93;6.75;;;25.90;64.00;;;;;;6310864;22;20003;-75
2022/05/12 09:40:26;;;;;;;8.45;6.05;;;26.00;61.40;;;;;;6313264;22;20003;-79
2022/05/12 09:42:56;;;;;;;9.60;5.35;;;26.00;61.60;;;;;;6288262;22;20364;-78
2022/05/12 09:45:32;;;;;;;7.47;4.53;;;26.10;61.40;;;;;;6314688;22;20003;-77
2022/05/12 09:48:31;;;;;;;14.23;6.90;;;26.10;62.00;;;;;;6309897;22;20003;-76
2022/05/12 09:51:22;;;;;;;5.27;4.70;;;26.20;60.40;;;;;;6234640;22;19999;-77
2022/05/12 09:53:51;;;;;;;5.65;4.80;;;26.20;61.20;;;;;;6291351;22;20014;-76
2022/05/12 09:56:35;;;;;;;7.78;5.40;;;26.40;62.00;;;;;;6307753;22;20011;-77
2022/05/12 09:59:15;;;;;;;10.40;6.75;;;26.50;62.80;;;;;;6280450;22;20046;-77
2022/05/12 10:01:55;;;;;;;8.15;5.88;;;26.70;62.90;;;;;;6304360;22;20014;-76
2022/05/12 10:10:20;;;;;;;9.32;6.00;;;27.30;62.40;;;;;;6308146;22;20452;-76
2022/05/12 10:13:11;;;;;;;7.57;5.95;;;27.40;62.60;;;;;;6280000;22;20306;-76
2022/05/12 10:15:39;;;;;;;9.13;6.28;;;27.50;61.30;;;;;;6308549;22;19999;-76
2022/05/12 10:18:53;;;;;;;8.18;6.50;;;27.60;60.90;;;;;;6280704;22;20364;-76
2022/05/12 10:21:24;;;;;;;8.00;6.07;;;27.50;60.20;;;;;;6253664;22;20003;-75
2022/05/12 10:23:56;;;;;;;9.25;5.85;;;27.60;60.90;;;;;;6307866;22;20003;-75
2022/05/12 10:26:35;;;;;;;8.15;5.65;;;27.70;61.20;;;;;;6308100;22;20481;-75
2022/05/12 10:29:18;;;;;;;9.95;6.60;;;27.90;61.50;;;;;;6308463;22;20003;-75
2022/05/12 10:32:02;;;;;;;9.85;6.65;;;28.00;61.30;;;;;;6307890;22;20022;-89
2022/05/12 10:34:53;;;;;;;7.20;5.72;;;28.20;60.70;;;;;;6307644;22;20007;-76
2022/05/12 10:37:47;;;;;;;11.77;6.05;;;28.40;60.70;;;;;;6307925;22;19999;-76
2022/05/12 10:40:26;;;;;;;10.55;6.78;;;28.50;60.70;;;;;;6260082;22;20038;-76
2022/05/12 10:43:16;;;;;;;10.55;6.78;;;28.60;60.20;;;;;;6308295;22;20006;-76
2022/05/12 10:45:45;;;;;;;10.48;6.68;;;28.80;59.40;;;;;;6308144;22;20003;-76
2022/05/12 10:48:22;;;;;;;9.27;5.90;;;28.80;59.90;;;;;;6307987;22;20484;-76
2022/05/12 10:50:57;;;;;;;11.48;6.88;;;28.90;59.40;;;;;;6306998;22;20452;-76
2022/05/12 10:53:37;;;;;;;9.93;5.85;;;29.00;59.30;;;;;;6307605;22;19995;-76
2022/05/12 10:56:25;;;;;;;8.93;5.78;;;29.10;59.00;;;;;;6306967;22;19995;-76
2022/05/12 10:59:12;;;;;;;9.90;6.32;;;29.10;58.80;;;;;;6306943;22;20007;-77
2022/05/12 11:01:49;;;;;;;12.63;7.45;;;29.30;58.60;;;;;;6280183;22;20003;-77
2022/05/12 11:04:34;;;;;;;10.85;6.75;;;29.40;58.30;;;;;;6306945;22;20011;-76
2022/05/12 11:07:06;;;;;;;10.07;6.43;;;29.50;58.20;;;;;;6307203;22;20030;-75
2022/05/12 11:09:39;;;;;;;11.05;7.88;;;29.70;58.00;;;;;;6305142;22;20003;-75
2022/05/12 11:12:30;;;;;;;13.05;8.45;;;29.80;57.70;;;;;;6279062;22;20082;-76
2022/05/12 11:15:03;;;;;;;9.15;6.85;;;30.00;57.10;;;;;;6307712;22;20441;-76
2022/05/12 11:17:40;;;;;;;11.32;7.53;;;30.10;56.80;;;;;;6306971;22;20009;-76
2022/05/12 11:20:24;;;;;;;10.95;7.60;;;30.20;55.60;;;;;;6306828;22;20007;-75
2022/05/12 11:23:00;;;;;;;13.02;6.38;;;30.40;56.50;;;;;;6307133;22;20026;-75
2022/05/12 11:25:34;;;;;;;10.45;7.75;;;30.50;56.50;;;;;;6307635;22;20003;-76
2022/05/12 11:31:21;;;;;;;14.65;7.55;;;31.00;55.20;;;;;;6301241;22;20053;-76
2022/05/12 11:33:59;;;;;;;10.75;7.53;;;31.20;55.30;;;;;;6307555;22;20023;-76
2022/05/12 11:36:42;;;;;;;15.77;7.57;;;31.50;54.70;;;;;;6279476;22;20003;-76
2022/05/12 11:39:38;;;;;;;12.93;7.10;;;31.80;53.20;;;;;;6307630;22;19999;-77
2022/05/12 11:42:22;;;;;;;9.95;6.57;;;32.00;54.00;;;;;;6304613;22;19999;-78
2022/05/12 11:45:05;;;;;;;12.68;7.43;;;32.30;53.20;;;;;;6306778;22;20411;-78
2022/05/12 11:47:43;;;;;;;9.57;7.45;;;32.50;52.90;;;;;;6306359;22;20000;-78
2022/05/12 11:50:41;;;;;;;10.73;6.78;;;32.70;53.20;;;;;;6307209;22;19999;-78
2022/05/12 11:53:46;;;;;;;8.23;6.80;;;32.90;51.70;;;;;;6306092;22;20040;-82
2022/05/12 11:56:13;;;;;;;10.63;6.70;;;33.10;51.40;;;;;;6306540;22;20313;-81
2022/05/12 11:59:13;;;;;;;8.38;6.90;;;33.20;50.50;;;;;;6306577;22;20080;-80
2022/05/12 12:01:39;;;;;;;13.18;7.88;;;33.20;50.80;;;;;;6306675;22;19995;-80
2022/05/12 12:04:05;;;;;;;11.50;7.30;;;33.10;50.30;;;;;;6279667;22;20003;-81
2022/05/12 12:07:07;;;;;;;9.32;6.63;;;33.20;50.70;;;;;;6307212;22;20504;-82
2022/05/12 12:09:35;;;;;;;9.35;6.70;;;33.30;50.00;;;;;;6182574;23;20039;-81
2022/05/12 12:12:07;;;;;;;8.23;6.13;;;33.40;50.10;;;;;;6283060;22;20021;-75
2022/05/12 12:14:49;;;;;;;13.30;9.48;;;33.40;50.10;;;;;;6306707;22;20048;-75
2022/05/12 12:17:35;;;;;;;7.75;6.15;;;33.00;47.70;;;;;;6306629;22;20003;-75
2022/05/12 12:20:30;;;;;;;11.07;7.78;;;33.00;50.00;;;;;;6306751;22;20489;-77
2022/05/12 12:23:23;;;;;;;13.68;7.82;;;33.20;49.00;;;;;;6306811;22;20400;-78
2022/05/12 12:26:20;;;;;;;7.18;5.72;;;33.10;47.00;;;;;;6295375;22;20014;-81
2022/05/12 12:28:58;;;;;;;14.43;7.25;;;33.20;49.00;;;;;;6248894;22;20003;-76
2022/05/12 12:31:37;;;;;;;12.63;7.65;;;33.20;48.60;;;;;;6279231;22;20007;-76
2022/05/12 12:34:27;;;;;;;13.20;7.17;;;33.20;47.90;;;;;;6306962;22;20056;-76
2022/05/12 12:37:02;;;;;;;9.93;7.47;;;33.30;47.60;;;;;;6306870;22;19995;-77
2022/05/12 12:39:32;;;;;;;12.50;7.65;;;33.30;48.00;;;;;;6302305;22;20027;-79
2022/05/12 12:42:19;;;;;;;10.73;7.80;;;33.50;47.40;;;;;;6305677;22;20007;-78
2022/05/12 12:44:54;;;;;;;11.27;7.28;;;33.60;47.40;;;;;;6277701;22;19999;-79
2022/05/12 12:47:56;;;;;;;12.25;6.72;;;33.70;47.60;;;;;;6305132;22;20421;-79
2022/05/12 12:50:35;;;;;;;10.40;6.65;;;33.80;46.80;;;;;;6304943;22;20010;-78
2022/05/12 12:53:01;;;;;;;7.85;6.40;;;33.90;47.30;;;;;;6305002;22;20335;-79
2022/05/12 12:58:32;;;;;;;13.55;8.15;;;34.00;46.50;;;;;;6307159;22;20437;-79
2022/05/12 13:01:20;;;;;;;8.55;6.60;;;34.00;46.20;;;;;;6279523;22;20095;-79
2022/05/12 13:03:52;;;;;;;11.00;8.02;;;34.00;45.40;;;;;;6306377;22;20003;-79
2022/05/12 13:06:27;;;;;;;9.18;7.47;;;33.80;45.60;;;;;;6279837;22;20034;-79
2022/05/12 13:09:02;;;;;;;11.57;6.82;;;33.70;46.10;;;;;;6307092;22;20003;-79
2022/05/12 13:11:28;;;;;;;9.75;6.45;;;33.70;46.50;;;;;;6305297;22;20014;-79
2022/05/12 13:13:56;;;;;;;11.80;7.07;;;33.70;45.90;;;;;;6306654;22;20003;-79
2022/05/12 13:16:25;;;;;;;8.95;6.13;;;33.70;46.30;;;;;;6306281;22;20409;-79
2022/05/12 13:18:53;;;;;;;10.88;7.97;;;33.60;46.90;;;;;;6306025;22;20003;-79
2022/05/12 13:21:28;;;;;;;11.70;7.32;;;33.40;45.60;;;;;;6308329;22;20009;-79
2022/05/12 13:24:13;;;;;;;9.18;6.47;;;33.30;46.60;;;;;;6308515;22;20003;-79
2022/05/12 13:26:40;;;;;;;15.25;7.78;;;33.20;46.70;;;;;;6306952;22;20045;-78
2022/05/12 13:29:09;;;;;;;10.75;6.88;;;32.90;47.00;;;;;;6308676;22;20078;-79
2022/05/12 13:31:41;;;;;;;10.65;6.28;;;32.90;48.00;;;;;;6309325;22;20071;-78
2022/05/12 13:34:12;;;;;;;7.93;6.32;;;33.00;47.00;;;;;;6309267;22;20007;-79
2022/05/12 13:36:41;;;;;;;10.38;6.32;;;33.10;46.40;;;;;;6308985;22;20029;-78
2022/05/12 13:39:11;;;;;;;12.43;8.35;;;33.00;47.20;;;;;;6309082;22;20078;-79
2022/05/12 13:41:48;;;;;;;10.32;6.38;;;33.00;45.90;;;;;;6309420;22;20010;-79
2022/05/12 13:44:26;;;;;;;9.18;6.50;;;32.90;47.00;;;;;;6281289;22;20057;-78
2022/05/12 13:46:54;;;;;;;8.73;5.97;;;33.00;47.20;;;;;;6309195;22;19995;-79
2022/05/12 13:49:48;;;;;;;9.55;6.10;;;32.90;47.10;;;;;;6309384;22;19995;-78
2022/05/12 13:52:13;;;;;;;8.75;5.78;;;32.80;48.30;;;;;;6304383;22;20027;-79
2022/05/12 13:55:02;;;;;;;15.10;6.35;;;32.90;47.60;;;;;;6308198;22;19999;-79
2022/05/12 13:57:41;;;;;;;9.55;5.70;;;32.80;47.50;;;;;;6308803;22;20060;-78
2022/05/12 14:00:13;;;;;;;11.05;6.40;;;32.80;48.30;;;;;;6307255;22;20053;-83
2022/05/12 14:02:44;;;;;;;6.82;6.00;;;32.80;48.10;;;;;;6309035;22;20413;-81
2022/05/12 14:05:36;;;;;;;8.43;6.28;;;32.90;48.10;;;;;;6308674;22;19999;-79
2022/05/12 14:08:01;;;;;;;9.43;6.65;;;32.90;47.40;;;;;;6302170;22;20303;-79
2022/05/12 14:10:35;;;;;;;9.13;6.65;;;32.80;47.20;;;;;;6307658;22;20005;-79
2022/05/12 14:21:36;;;;;;;12.57;6.85;;;32.50;48.40;;;;;;6223388;22;20463;-78
2022/05/12 14:24:02;;;;;;;12.05;6.90;;;32.20;49.60;;;;;;6308252;22;20048;-78
2022/05/12 14:26:28;;;;;;;10.30;6.43;;;32.10;49.40;;;;;;6308428;22;20000;-78
2022/05/12 14:28:54;;;;;;;11.05;6.80;;;31.90;49.90;;;;;;6308973;22;20425;-77
2022/05/12 14:31:23;;;;;;;10.27;6.82;;;31.80;50.40;;;;;;6308472;22;20002;-77
2022/05/12 14:33:49;;;;;;;7.80;5.78;;;31.60;50.50;;;;;;6308645;22;20003;-76
2022/05/12 14:36:15;;;;;;;12.82;9.38;;;31.50;50.80;;;;;;6308901;22;20080;-76
2022/05/12 14:38:41;;;;;;;9.63;7.00;;;31.30;51.20;;;;;;6308644;22;19995;-77
2022/05/12 14:41:06;;;;;;;10.85;6.45;;;31.00;51.90;;;;;;6308319;22;20031;-77
2022/05/12 14:43:32;;;;;;;8.90;6.05;;;31.00;51.90;;;;;;6308002;22;20019;-77
2022/05/12 14:45:58;;;;;;;9.55;6.18;;;30.80;52.10;;;;;;6307631;22;20003;-76
2022/05/12 14:48:24;;;;;;;8.90;6.65;;;30.70;52.40;;;;;;6304884;22;20390;-76
2022/05/12 14:50:50;;;;;;;11.07;7.20;;;30.70;52.80;;;;;;6306327;22;20010;-76
2022/05/12 14:53:16;;;;;;;9.30;6.07;;;30.50;54.20;;;;;;6306912;22;20023;-77
2022/05/12 14:55:43;;;;;;;7.75;5.95;;;30.40;54.30;;;;;;6305978;22;20010;-77
2022/05/12 14:58:10;;;;;;;13.32;8.25;;;30.40;54.40;;;;;;6304884;22;20431;-76
2022/05/12 15:00:39;;;;;;;11.18;7.50;;;30.30;55.00;;;;;;6305920;22;20003;-76
2022/05/12 15:03:05;;;;;;;9.63;8.10;;;30.20;54.60;;;;;;6307462;22;20053;-76
2022/05/12 15:05:31;;;;;;;9.68;7.20;;;30.20;54.80;;;;;;6307512;22;20003;-76
2022/05/12 15:07:58;;;;;;;10.65;7.70;;;30.00;55.20;;;;;;6306019;22;19999;-76
2022/05/12 15:10:24;;;;;;;8.63;7.13;;;29.80;55.70;;;;;;6305894;22;19999;-76
2022/05/12 15:12:49;;;;;;;11.30;6.72;;;29.80;55.90;;;;;;6279071;22;20027;-76
2022/05/12 15:15:16;;;;;;;8.30;7.00;;;29.70;55.60;;;;;;6305450;22;20014;-76
2022/05/12 15:17:45;;;;;;;8.95;7.38;;;29.60;55.50;;;;;;6306832;22;20804;-77
2022/05/12 15:20:14;;;;;;;8.52;6.70;;;29.60;55.50;;;;;;6303102;22;20049;-77
2022/05/12 15:22:40;;;;;;;9.70;7.15;;;29.50;55.70;;;;;;6304417;22;20505;-77
2022/05/12 15:25:08;;;;;;;8.40;7.47;;;29.50;55.40;;;;;;6306072;22;20035;-76
2022/05/12 15:27:35;;;;;;;9.55;7.75;;;29.40;55.10;;;;;;6306583;22;20378;-77
2022/05/12 15:30:05;;;;;;;11.65;6.90;;;29.40;55.20;;;;;;6306692;22;20012;-76
2022/05/12 15:32:31;;;;;;;12.98;7.25;;;29.30;55.40;;;;;;6306036;22;20413;-76
2022/05/12 15:34:57;;;;;;;8.25;7.30;;;29.20;55.70;;;;;;6307019;22;20074;-76
2022/05/12 15:37:23;;;;;;;7.53;6.45;;;29.20;55.90;;;;;;6306865;22;20330;-76
2022/05/12 15:39:49;;;;;;;10.13;6.28;;;29.10;55.60;;;;;;6306771;22;20061;-76
2022/05/12 15:42:15;;;;;;;7.70;5.20;;;29.00;55.50;;;;;;6305508;22;20007;-76
2022/05/12 15:44:45;;;;;;;6.40;4.93;;;28.90;55.10;;;;;;6305775;22;20338;-77
2022/05/12 15:47:32;;;;;;;10.60;5.85;;;28.90;54.50;;;;;;6306010;22;19999;-76
2022/05/12 15:49:58;;;;;;;6.95;4.20;;;28.90;54.10;;;;;;6306595;22;20003;-76
2022/05/12 15:52:26;;;;;;;6.25;4.60;;;28.70;54.10;;;;;;6306337;22;20061;-77
2022/05/12 15:54:56;;;;;;;10.63;4.65;;;28.70;54.10;;;;;;6279091;22;20089;-77
2022/05/12 15:57:22;;;;;;;5.88;4.00;;;28.70;53.90;;;;;;6305817;22;20030;-76
2022/05/12 15:59:48;;;;;;;8.75;3.95;;;28.60;53.50;;;;;;6306965;22;20010;-76
2022/05/12 16:02:21;;;;;;;5.03;3.60;;;28.60;53.40;;;;;;6306200;22;20000;-77
2022/05/12 16:04:48;;;;;;;9.32;4.07;;;28.50;53.20;;;;;;6306567;22;20084;-76
2022/05/12 16:07:14;;;;;;;5.28;3.50;;;28.50;53.00;;;;;;6305896;22;19995;-76
2022/05/12 16:09:40;;;;;;;7.45;3.80;;;28.50;52.80;;;;;;6306963;22;19995;-76